Time;durP1;ratioP1;P1;durP2;ratioP2;P2;SDS_P1;SDS_P2;PMS_P1;PMS_P2;Temp;Humidity;BMP_temperature;BMP_pressure;BME280_temperature;BME280_humidity;BME280_pressure;Samples;Min_cycle;Max_cycle;Signal;HPM_P1;HPM_P2
2022/07/19 00:00:09;;;;;;;;;;;;;;;13.94;100.00;91600.09;5052526;28;20007;-66
2022/07/19 00:02:35;;;;;;;;;;;;;;;13.89;100.00;91592.22;5052815;28;19952;-67
2022/07/19 00:05:00;;;;;;;;;;;;;;;13.85;100.00;91598.50;5052463;28;20323;-66
2022/07/19 00:07:25;;;;;;;;;;;;;;;13.83;100.00;91604.16;5034484;28;19912;-66
2022/07/19 00:09:51;;;;;;;;;;;;;;;13.80;100.00;91610.13;5052350;28;19919;-66
2022/07/19 00:12:16;;;;;;;;;;;;;;;13.71;100.00;91604.75;5052363;28;19917;-66
2022/07/19 00:14:41;;;;;;;;;;;;;;;13.65;100.00;91602.53;5052518;28;19920;-66
2022/07/19 00:17:07;;;;;;;;;;;;;;;13.64;100.00;91609.78;5052095;28;20362;-66
2022/07/19 00:19:32;;;;;;;;;;;;;;;13.63;100.00;91600.16;5052077;28;19917;-66
2022/07/19 00:21:57;;;;;;;;;;;;;;;13.55;100.00;91602.81;5052121;28;19913;-66
2022/07/19 00:24:23;;;;;;;;;;;;;;;13.47;100.00;91607.81;5052151;28;19913;-66
2022/07/19 00:26:48;;;;;;;;;;;;;;;13.40;100.00;91601.34;5052112;28;19920;-66
2022/07/19 00:29:13;;;;;;;;;;;;;;;13.40;100.00;91593.31;5052035;28;19919;-66
2022/07/19 00:31:39;;;;;;;;;;;;;;;13.35;100.00;91601.47;5052263;28;20345;-66
2022/07/19 00:34:04;;;;;;;;;;;;;;;13.32;100.00;91600.22;5051984;28;19927;-66
2022/07/19 00:36:30;;;;;;;;;;;;;;;13.29;100.00;91595.50;5051819;28;19917;-67
2022/07/19 00:38:55;;;;;;;;;;;;;;;13.22;100.00;91592.47;5051945;28;20004;-66
2022/07/19 00:41:20;;;;;;;;;;;;;;;13.19;100.00;91598.44;5051930;28;19912;-66
2022/07/19 00:43:46;;;;;;;;;;;;;;;13.14;100.00;91595.88;5051864;28;19962;-66
2022/07/19 00:46:15;;;;;;;;;;;;;;;12.96;100.00;91594.22;5051628;28;19912;-66
2022/07/19 00:48:41;;;;;;;;;;;;;;;12.88;100.00;91593.06;5051787;28;19917;-66
2022/07/19 00:51:06;;;;;;;;;;;;;;;12.81;100.00;91596.16;5051777;28;19935;-66
2022/07/19 00:53:32;;;;;;;;;;;;;;;12.79;100.00;91598.34;5051711;28;20398;-67
2022/07/19 00:55:58;;;;;;;;;;;;;;;12.71;100.00;91596.41;5051502;28;19913;-66
2022/07/19 00:58:24;;;;;;;;;;;;;;;12.72;100.00;91589.19;5051706;28;19916;-66
2022/07/19 01:00:50;;;;;;;;;;;;;;;12.74;100.00;91595.00;5050926;28;20389;-66
2022/07/19 01:03:16;;;;;;;;;;;;;;;12.86;100.00;91584.56;5051606;28;20383;-66
2022/07/19 01:05:43;;;;;;;;;;;;;;;12.79;100.00;91593.00;5051477;28;20386;-66
2022/07/19 01:08:08;;;;;;;;;;;;;;;12.73;100.00;91593.44;5051546;28;19912;-67
2022/07/19 01:10:34;;;;;;;;;;;;;;;12.69;100.00;91587.13;5051535;28;19919;-66
2022/07/19 01:13:01;;;;;;;;;;;;;;;12.61;100.00;91591.31;5051740;28;19928;-66
2022/07/19 01:15:27;;;;;;;;;;;;;;;12.53;100.00;91584.84;5051492;28;20293;-66
2022/07/19 01:17:53;;;;;;;;;;;;;;;12.47;100.00;91595.94;5051279;28;19912;-66
2022/07/19 01:20:19;;;;;;;;;;;;;;;12.42;100.00;91590.72;5051278;28;19917;-66
2022/07/19 01:22:45;;;;;;;;;;;;;;;12.40;100.00;91595.56;5051435;28;19916;-67
2022/07/19 01:25:11;;;;;;;;;;;;;;;12.37;100.00;91590.84;5051405;28;19928;-67
2022/07/19 01:27:43;;;;;;;;;;;;;;;12.28;100.00;91585.41;5051531;28;19971;-67
2022/07/19 01:30:12;;;;;;;;;;;;;;;12.22;100.00;91592.75;5051301;28;19952;-67
2022/07/19 01:32:38;;;;;;;;;;;;;;;12.15;100.00;91592.41;5051335;28;19982;-66
2022/07/19 01:35:03;;;;;;;;;;;;;;;12.07;100.00;91581.66;5051532;28;20284;-66
2022/07/19 01:37:29;;;;;;;;;;;;;;;12.09;100.00;91595.47;5051087;28;19923;-66
2022/07/19 01:39:56;;;;;;;;;;;;;;;12.07;100.00;91589.66;5051206;28;19917;-66
2022/07/19 01:42:23;;;;;;;;;;;;;;;12.01;100.00;91582.88;5051292;28;19917;-67
2022/07/19 01:44:49;;;;;;;;;;;;;;;12.01;100.00;91591.66;5051233;28;19917;-66
2022/07/19 01:47:14;;;;;;;;;;;;;;;11.94;100.00;91593.94;5033211;28;20009;-66
2022/07/19 01:49:39;;;;;;;;;;;;;;;11.86;100.00;91589.31;5051180;28;20070;-66
2022/07/19 01:52:05;;;;;;;;;;;;;;;11.77;100.00;91591.06;5051168;28;20345;-66
2022/07/19 01:54:30;;;;;;;;;;;;;;;11.74;100.00;91599.66;5033193;28;19951;-66
2022/07/19 01:56:55;;;;;;;;;;;;;;;11.73;100.00;91593.56;5050939;28;19956;-66
2022/07/19 01:59:21;;;;;;;;;;;;;;;11.75;100.00;91595.91;5051044;28;19917;-66
2022/07/19 02:01:46;;;;;;;;;;;;;;;11.77;100.00;91599.06;5051059;28;19921;-66
2022/07/19 02:04:37;;;;;;;;;;;;;;;11.74;100.00;91595.13;5159223;23;20398;31
2022/07/19 02:07:02;;;;;;;;;;;;;;;11.66;100.00;91593.94;4970394;28;19922;-65
2022/07/19 02:09:27;;;;;;;;;;;;;;;11.60;100.00;91594.34;4971887;28;19925;-65
2022/07/19 02:11:53;;;;;;;;;;;;;;;11.63;100.00;91599.88;4973700;28;19921;-65
2022/07/19 02:14:18;;;;;;;;;;;;;;;11.60;100.00;91591.69;4975485;28;19914;-65
2022/07/19 02:16:44;;;;;;;;;;;;;;;11.51;100.00;91596.91;4975488;28;19965;-65
2022/07/19 02:19:09;;;;;;;;;;;;;;;11.52;100.00;91601.19;4975402;28;20300;-65
2022/07/19 02:21:35;;;;;;;;;;;;;;;11.53;100.00;91597.44;4975493;28;20001;-65
2022/07/19 02:24:01;;;;;;;;;;;;;;;11.54;100.00;91599.00;4975420;28;19925;-65
2022/07/19 02:26:26;;;;;;;;;;;;;;;11.52;100.00;91600.38;4975253;28;19918;-65
2022/07/19 02:28:52;;;;;;;;;;;;;;;11.50;100.00;91594.53;4975267;28;20288;-65
2022/07/19 02:31:18;;;;;;;;;;;;;;;11.49;100.00;91608.97;4975254;28;19914;-65
2022/07/19 02:33:43;;;;;;;;;;;;;;;11.44;100.00;91604.53;4975103;28;19914;-65
2022/07/19 02:36:08;;;;;;;;;;;;;;;11.43;100.00;91605.63;4975057;28;19918;-65
2022/07/19 02:38:34;;;;;;;;;;;;;;;11.42;100.00;91601.38;4974991;28;19921;-65
2022/07/19 02:40:59;;;;;;;;;;;;;;;11.42;100.00;91597.91;4975113;28;19925;-65
2022/07/19 02:43:24;;;;;;;;;;;;;;;11.38;100.00;91600.41;4975035;28;20413;-65
2022/07/19 02:45:50;;;;;;;;;;;;;;;11.38;100.00;91605.72;4974891;28;19918;-65
2022/07/19 02:48:15;;;;;;;;;;;;;;;11.34;100.00;91612.69;4974867;28;19918;-65
2022/07/19 02:50:41;;;;;;;;;;;;;;;11.31;100.00;91606.09;4957437;28;19918;-65
2022/07/19 02:53:06;;;;;;;;;;;;;;;11.25;100.00;91603.84;4974933;28;20315;-66
2022/07/19 02:55:34;;;;;;;;;;;;;;;11.21;100.00;91608.19;4974672;28;20004;-65
2022/07/19 02:57:59;;;;;;;;;;;;;;;11.15;100.00;91612.00;4974730;28;19914;-65
2022/07/19 03:00:25;;;;;;;;;;;;;;;11.13;100.00;91612.31;4974705;28;20331;-65
2022/07/19 03:02:50;;;;;;;;;;;;;;;11.14;100.00;91610.44;4974756;28;19918;-65
2022/07/19 03:05:15;;;;;;;;;;;;;;;11.16;100.00;91617.03;4974337;28;19918;-65
2022/07/19 03:07:41;;;;;;;;;;;;;;;11.28;100.00;91609.34;4974544;28;19972;-65
2022/07/19 03:10:07;;;;;;;;;;;;;;;11.39;100.00;91620.63;4957224;28;19956;-65
2022/07/19 03:12:32;;;;;;;;;;;;;;;11.38;100.00;91617.16;4974451;28;19957;-65
2022/07/19 03:14:58;;;;;;;;;;;;;;;11.40;100.00;91624.84;4974398;28;20463;-65
2022/07/19 03:17:23;;;;;;;;;;;;;;;11.36;100.00;91621.19;4974326;28;20431;-65
2022/07/19 03:19:48;;;;;;;;;;;;;;;11.36;100.00;91615.84;4974317;28;19925;-65
2022/07/19 03:22:14;;;;;;;;;;;;;;;11.41;100.00;91623.78;4974099;28;19922;-65
2022/07/19 03:24:39;;;;;;;;;;;;;;;11.45;100.00;91624.75;4973654;28;20379;-66
2022/07/19 03:27:04;;;;;;;;;;;;;;;11.48;100.00;91629.47;4974232;28;20297;-66
2022/07/19 03:29:30;;;;;;;;;;;;;;;11.52;100.00;91629.66;4974147;28;19914;-66
2022/07/19 03:31:56;;;;;;;;;;;;;;;11.56;100.00;91625.34;4974184;28;20380;-66
2022/07/19 03:34:21;;;;;;;;;;;;;;;11.61;100.00;91627.91;4974057;28;19914;-68
2022/07/19 03:36:46;;;;;;;;;;;;;;;11.64;100.00;91622.75;4973932;28;19918;-66
2022/07/19 03:39:12;;;;;;;;;;;;;;;11.57;100.00;91626.94;4974025;28;20005;-65
2022/07/19 03:41:37;;;;;;;;;;;;;;;11.50;100.00;91624.63;4973934;28;19914;-66
2022/07/19 03:44:02;;;;;;;;;;;;;;;11.51;100.00;91625.44;4973716;28;19993;-66
2022/07/19 03:46:28;;;;;;;;;;;;;;;11.50;100.00;91627.31;4973628;28;19925;-66
2022/07/19 03:48:54;;;;;;;;;;;;;;;11.49;100.00;91623.06;4973764;28;20276;-67
2022/07/19 03:51:19;;;;;;;;;;;;;;;11.66;100.00;91611.81;4973794;28;19922;-65
2022/07/19 03:53:46;;;;;;;;;;;;;;;11.76;100.00;91621.47;4973759;28;19921;-66
2022/07/19 03:56:11;;;;;;;;;;;;;;;11.91;100.00;91626.53;4973491;28;19914;-65
2022/07/19 03:58:37;;;;;;;;;;;;;;;12.03;100.00;91618.03;4973665;28;20296;-66
2022/07/19 04:01:02;;;;;;;;;;;;;;;12.18;100.00;91623.81;4973651;28;19968;-66
2022/07/19 04:03:28;;;;;;;;;;;;;;;12.26;100.00;91630.28;4973604;28;19945;-65
2022/07/19 04:05:54;;;;;;;;;;;;;;;12.17;100.00;91624.91;4973416;28;19922;-65
2022/07/19 04:08:19;;;;;;;;;;;;;;;12.10;100.00;91624.50;4973472;28;19914;-65
2022/07/19 04:10:44;;;;;;;;;;;;;;;12.23;100.00;91625.56;4973532;28;20492;-66
2022/07/19 04:13:10;;;;;;;;;;;;;;;12.32;100.00;91636.31;4973306;28;19914;-65
2022/07/19 04:15:35;;;;;;;;;;;;;;;12.38;100.00;91635.88;4973242;28;20012;-65
2022/07/19 04:18:00;;;;;;;;;;;;;;;12.40;100.00;91632.91;4973465;28;19918;-65
2022/07/19 04:20:25;;;;;;;;;;;;;;;12.48;100.00;91630.34;4973324;28;19980;-66
2022/07/19 04:22:51;;;;;;;;;;;;;;;12.59;100.00;91630.88;4973145;28;19914;-65
2022/07/19 04:25:16;;;;;;;;;;;;;;;12.75;100.00;91629.41;4972997;28;19968;-65
2022/07/19 04:27:41;;;;;;;;;;;;;;;12.87;100.00;91626.97;4972892;28;19914;-65
2022/07/19 04:30:07;;;;;;;;;;;;;;;12.96;100.00;91639.63;4973094;28;19917;-65
2022/07/19 04:32:33;;;;;;;;;;;;;;;13.17;100.00;91635.31;4973115;28;20364;-65
2022/07/19 04:34:59;;;;;;;;;;;;;;;13.39;100.00;91631.84;4972967;28;20376;-66
2022/07/19 04:37:24;;;;;;;;;;;;;;;13.57;100.00;91627.34;4972914;28;19921;-66
2022/07/19 04:39:49;;;;;;;;;;;;;;;13.76;100.00;91630.56;4972936;28;20330;-65
2022/07/19 04:42:15;;;;;;;;;;;;;;;13.83;100.00;91630.09;4972828;28;19914;-66
2022/07/19 04:44:40;;;;;;;;;;;;;;;14.01;100.00;91627.16;4972666;28;19918;-66
2022/07/19 04:47:05;;;;;;;;;;;;;;;14.06;100.00;91634.28;4972795;28;20392;-66
2022/07/19 04:49:31;;;;;;;;;;;;;;;14.02;100.00;91623.38;4972717;28;20002;-66
2022/07/19 04:51:56;;;;;;;;;;;;;;;14.12;100.00;91630.34;4972779;28;19918;-66
2022/07/19 04:54:22;;;;;;;;;;;;;;;14.26;100.00;91632.88;4972598;28;20277;-65
2022/07/19 04:56:47;;;;;;;;;;;;;;;14.40;100.00;91630.84;4972544;28;19914;-65
2022/07/19 04:59:12;;;;;;;;;;;;;;;14.50;100.00;91622.50;4972692;28;20363;-65
2022/07/19 05:01:38;;;;;;;;;;;;;;;14.61;100.00;91626.47;4972872;28;19918;-65
2022/07/19 05:04:03;;;;;;;;;;;;;;;14.65;100.00;91623.94;4972396;28;19918;-66
2022/07/19 05:06:29;;;;;;;;;;;;;;;14.83;100.00;91628.19;4972153;28;19918;-66
2022/07/19 05:08:56;;;;;;;;;;;;;;;14.98;100.00;91630.34;4972581;28;19937;-66
2022/07/19 05:11:21;;;;;;;;;;;;;;;15.04;100.00;91631.00;4972547;28;19914;-66
2022/07/19 05:13:46;;;;;;;;;;;;;;;15.15;100.00;91632.25;4972558;28;19925;-67
2022/07/19 05:16:12;;;;;;;;;;;;;;;15.35;100.00;91625.41;4972317;28;19921;-66
2022/07/19 05:18:37;;;;;;;;;;;;;;;15.48;100.00;91624.44;4972513;28;19996;-65
2022/07/19 05:21:02;;;;;;;;;;;;;;;15.63;100.00;91625.03;4972574;28;19918;-65
2022/07/19 05:23:28;;;;;;;;;;;;;;;15.76;100.00;91627.47;4972819;28;19918;-66
2022/07/19 05:25:53;;;;;;;;;;;;;;;15.98;100.00;91631.03;4972404;28;19953;-66
2022/07/19 05:28:18;;;;;;;;;;;;;;;16.32;100.00;91630.81;4972497;28;19936;-66
2022/07/19 05:30:44;;;;;;;;;;;;;;;16.62;100.00;91636.16;4972187;28;20353;-66
2022/07/19 05:33:09;;;;;;;;;;;;;;;16.85;100.00;91632.03;4972650;28;19965;-66
2022/07/19 05:35:35;;;;;;;;;;;;;;;17.16;100.00;91630.81;4972280;28;20425;-65
2022/07/19 05:38:00;;;;;;;;;;;;;;;17.34;100.00;91630.28;4969228;28;19918;-66
2022/07/19 05:40:25;;;;;;;;;;;;;;;18.35;96.25;91628.97;4951862;28;19925;-66
2022/07/19 05:42:50;;;;;;;;;;;;;;;21.63;73.07;91633.25;4952893;29;20304;-66
2022/07/19 05:45:16;;;;;;;;;;;;;;;24.84;57.41;91631.91;4952344;28;19954;-67
2022/07/19 05:47:41;;;;;;;;;;;;;;;25.93;52.67;91634.41;4956187;29;20001;-66
2022/07/19 05:50:07;;;;;;;;;;;;;;;27.53;48.46;91625.38;4956456;29;20403;-66
2022/07/19 05:52:32;;;;;;;;;;;;;;;28.10;46.01;91633.34;4956387;29;20005;-66
2022/07/19 05:54:57;;;;;;;;;;;;;;;30.14;42.11;91624.00;4956241;29;19918;-66
2022/07/19 05:57:23;;;;;;;;;;;;;;;31.40;39.07;91621.63;4956193;29;20407;-66
2022/07/19 05:59:48;;;;;;;;;;;;;;;32.70;37.73;91628.41;4956015;29;19926;-66
2022/07/19 06:02:14;;;;;;;;;;;;;;;32.15;37.52;91623.72;4956218;29;19921;-67
2022/07/19 06:04:39;;;;;;;;;;;;;;;33.11;36.59;91637.28;4956215;29;19925;-67
2022/07/19 06:07:05;;;;;;;;;;;;;;;32.00;39.02;91625.97;4956290;29;19914;-66
2022/07/19 06:09:30;;;;;;;;;;;;;;;34.35;35.29;91622.91;4956290;29;20001;-66
2022/07/19 06:11:55;;;;;;;;;;;;;;;33.71;36.32;91629.47;4956130;29;19914;-66
2022/07/19 06:14:21;;;;;;;;;;;;;;;33.89;35.27;91632.53;4956040;29;19914;-66
2022/07/19 06:16:49;;;;;;;;;;;;;;;34.98;34.53;91621.41;4955725;29;19926;-66
2022/07/19 06:19:14;;;;;;;;;;;;;;;36.45;31.97;91624.22;4956080;29;19914;-66
2022/07/19 06:21:40;;;;;;;;;;;;;;;35.20;33.53;91622.25;4955986;29;20416;-66
2022/07/19 06:24:05;;;;;;;;;;;;;;;35.52;33.81;91621.22;4956170;29;19914;-66
2022/07/19 06:26:31;;;;;;;;;;;;;;;34.36;34.34;91621.72;4955954;29;21240;-66
2022/07/19 06:28:56;;;;;;;;;;;;;;;35.46;32.63;91617.44;4956094;29;19918;-66
2022/07/19 06:31:22;;;;;;;;;;;;;;;32.89;36.06;91613.03;4955504;29;19937;-66
2022/07/19 06:33:48;;;;;;;;;;;;;;;32.33;36.53;91615.09;4955657;29;20324;-66
2022/07/19 06:36:13;;;;;;;;;;;;;;;32.16;37.89;91622.50;4955575;29;19915;-66
2022/07/19 06:38:38;;;;;;;;;;;;;;;31.53;38.61;91611.56;4955574;29;19914;-66
2022/07/19 06:41:04;;;;;;;;;;;;;;;32.82;37.01;91618.69;4955554;29;19914;-66
2022/07/19 06:43:29;;;;;;;;;;;;;;;33.78;35.52;91613.47;4962831;28;20010;-66
2022/07/19 06:45:57;;;;;;;;;;;;;;;33.90;36.26;91628.53;4973999;28;20369;-66
2022/07/19 06:48:23;;;;;;;;;;;;;;;33.32;34.59;91620.22;4974560;28;19914;-67
2022/07/19 06:50:48;;;;;;;;;;;;;;;34.40;34.82;91624.34;4974665;28;19964;-67
2022/07/19 06:53:13;;;;;;;;;;;;;;;32.70;32.64;91619.38;4974703;28;19914;-66
2022/07/19 06:55:39;;;;;;;;;;;;;;;31.25;32.19;91618.41;4974702;28;19920;-67
2022/07/19 06:58:04;;;;;;;;;;;;;;;30.94;33.08;91621.25;4973605;28;19914;-66
2022/07/19 07:00:29;;;;;;;;;;;;;;;32.20;32.17;91612.22;4974394;28;20017;-66
2022/07/19 07:02:55;;;;;;;;;;;;;;;32.70;31.26;91616.59;4974692;28;19973;-66
2022/07/19 07:05:20;;;;;;;;;;;;;;;33.91;32.43;91614.31;4974269;28;20400;-66
2022/07/19 07:07:47;;;;;;;;;;;;;;;35.38;28.58;91618.94;4974531;28;20000;-66
2022/07/19 07:10:13;;;;;;;;;;;;;;;34.32;29.66;91614.72;4974456;28;19914;-66
2022/07/19 07:12:38;;;;;;;;;;;;;;;33.31;30.62;91615.91;4974496;28;20015;-66
2022/07/19 07:15:04;;;;;;;;;;;;;;;32.22;31.00;91607.03;4974073;28;20432;-65
2022/07/19 07:17:30;;;;;;;;;;;;;;;33.41;31.80;91614.88;4974428;28;19914;-66
2022/07/19 07:19:56;;;;;;;;;;;;;;;34.65;29.99;91607.81;4974443;28;19918;-66
2022/07/19 07:22:21;;;;;;;;;;;;;;;35.95;28.91;91605.88;4974161;28;20403;-66
2022/07/19 07:24:46;;;;;;;;;;;;;;;37.19;28.61;91619.75;4974134;28;19918;-66
2022/07/19 07:27:12;;;;;;;;;;;;;;;36.02;25.89;91613.16;4974096;28;19983;-66
2022/07/19 07:29:37;;;;;;;;;;;;;;;34.08;28.22;91611.47;4973742;28;20430;-66
2022/07/19 07:32:02;;;;;;;;;;;;;;;34.64;29.63;91614.53;4974212;28;19918;-66
2022/07/19 07:34:28;;;;;;;;;;;;;;;35.93;28.18;91608.31;4973850;28;19918;-67
2022/07/19 07:36:53;;;;;;;;;;;;;;;36.41;28.20;91608.94;4974032;28;19918;-66
2022/07/19 07:39:19;;;;;;;;;;;;;;;35.85;27.06;91610.59;4973761;28;20316;-67
2022/07/19 07:41:44;;;;;;;;;;;;;;;34.01;27.66;91622.72;4973970;28;20356;-67
2022/07/19 07:44:09;;;;;;;;;;;;;;;33.73;28.96;91618.75;4973439;28;19914;-68
2022/07/19 07:46:35;;;;;;;;;;;;;;;35.91;26.83;91619.06;4973768;28;19949;-67
2022/07/19 07:49:00;;;;;;;;;;;;;;;34.84;28.78;91612.31;4956444;28;19918;-67
2022/07/19 07:51:25;;;;;;;;;;;;;;;36.35;27.00;91617.09;4973832;28;19914;-67
2022/07/19 07:53:51;;;;;;;;;;;;;;;36.22;27.59;91614.34;4973741;28;19970;-65
2022/07/19 07:56:16;;;;;;;;;;;;;;;35.86;27.76;91612.13;4973668;28;19918;-65
2022/07/19 07:58:41;;;;;;;;;;;;;;;36.48;26.98;91603.13;4973067;28;19933;-65
2022/07/19 08:01:07;;;;;;;;;;;;;;;37.01;26.97;91606.59;4973609;28;19945;-65
2022/07/19 08:03:32;;;;;;;;;;;;;;;38.06;25.60;91612.91;4967521;28;19945;-65
2022/07/19 08:05:57;;;;;;;;;;;;;;;37.98;25.15;91622.78;4971999;28;19922;-65
2022/07/19 08:08:26;;;;;;;;;;;;;;;36.78;25.30;91620.97;4973415;28;19965;-64
2022/07/19 08:10:55;;;;;;;;;;;;;;;35.45;26.93;91612.38;4973153;28;19914;-69
2022/07/19 08:13:20;;;;;;;;;;;;;;;34.27;27.06;91605.00;4987713;28;19914;-67
2022/07/19 08:15:46;;;;;;;;;;;;;;;32.20;29.46;91614.19;4973132;28;19936;-68
2022/07/19 08:18:11;;;;;;;;;;;;;;;32.91;28.88;91624.38;4972803;28;20281;-67
2022/07/19 08:20:36;;;;;;;;;;;;;;;31.38;30.10;91618.53;4973226;28;19918;-68
2022/07/19 08:23:02;;;;;;;;;;;;;;;32.45;29.33;91612.44;4973198;28;19921;-71
2022/07/19 08:25:27;;;;;;;;;;;;;;;31.60;29.98;91603.19;4973084;28;19918;-71
2022/07/19 08:27:53;;;;;;;;;;;;;;;32.49;29.69;91601.34;4973136;28;19922;-67
2022/07/19 08:30:18;;;;;;;;;;;;;;;32.95;29.20;91616.03;4972324;28;19992;-67
2022/07/19 08:32:43;;;;;;;;;;;;;;;32.69;30.79;91604.03;4972974;28;19914;-67
2022/07/19 08:35:09;;;;;;;;;;;;;;;32.70;29.48;91606.38;4972961;28;19981;-67
2022/07/19 08:37:35;;;;;;;;;;;;;;;33.60;29.35;91607.66;4972766;28;19925;-67
2022/07/19 08:40:00;;;;;;;;;;;;;;;34.49;29.18;91611.44;4972936;28;19919;-67
2022/07/19 08:42:26;;;;;;;;;;;;;;;35.24;29.47;91605.53;4973029;28;20368;-67
2022/07/19 08:44:52;;;;;;;;;;;;;;;35.22;27.80;91599.69;4972482;28;19914;-67
2022/07/19 08:47:18;;;;;;;;;;;;;;;35.82;29.10;91605.13;4972831;28;19972;-68
2022/07/19 08:49:44;;;;;;;;;;;;;;;36.63;27.47;91598.59;4972853;28;19964;-67
2022/07/19 08:52:10;;;;;;;;;;;;;;;35.59;28.25;91598.81;4972749;28;19918;-67
2022/07/19 08:54:35;;;;;;;;;;;;;;;36.46;27.47;91589.75;4972623;28;19987;-68
2022/07/19 08:59:44;;;;;;;;;;;;;;;34.23;28.49;91585.75;4972411;28;19968;-67
2022/07/19 09:02:10;;;;;;;;;;;;;;;34.21;28.90;91590.94;4972640;28;19914;-67
2022/07/19 09:04:35;;;;;;;;;;;;;;;35.39;28.35;91596.34;4972278;28;20001;-68
2022/07/19 09:07:02;;;;;;;;;;;;;;;35.50;28.07;91579.34;4972612;28;19941;-67
2022/07/19 09:09:29;;;;;;;;;;;;;;;35.74;29.13;91584.47;4972702;28;19961;-68
2022/07/19 09:11:56;;;;;;;;;;;;;;;35.98;26.68;91586.38;4972620;28;19918;-68
2022/07/19 09:14:27;;;;;;;;;;;;;;;36.53;27.75;91592.22;4972072;28;19914;-67
2022/07/19 09:17:16;;;;;;;;;;;;;;;35.46;28.10;91583.47;4972391;28;19914;-66
2022/07/19 09:19:43;;;;;;;;;;;;;;;35.46;28.27;91577.94;4972580;28;20304;-67
2022/07/19 09:22:15;;;;;;;;;;;;;;;34.91;28.81;91582.94;4975309;28;19944;-67
2022/07/19 09:24:42;;;;;;;;;;;;;;;35.07;29.12;91580.81;4976468;28;20387;-67
2022/07/19 09:27:12;;;;;;;;;;;;;;;35.90;27.99;91576.75;4976584;28;19918;-67
2022/07/19 09:29:42;;;;;;;;;;;;;;;34.54;28.59;91580.50;4976512;28;19914;-67
2022/07/19 09:32:07;;;;;;;;;;;;;;;34.59;29.24;91572.88;4976472;28;20638;-66
2022/07/19 09:34:34;;;;;;;;;;;;;;;35.38;26.33;91592.03;4976330;28;19914;-67
2022/07/19 09:37:09;;;;;;;;;;;;;;;33.76;28.86;91593.81;4975710;28;19925;-66
2022/07/19 09:39:35;;;;;;;;;;;;;;;34.84;30.09;91587.44;4976438;28;19997;-66
2022/07/19 09:42:02;;;;;;;;;;;;;;;35.46;25.03;91589.00;4976420;28;20384;-67
2022/07/19 09:44:28;;;;;;;;;;;;;;;35.14;27.58;91588.06;4976254;28;19953;-66
2022/07/19 09:46:54;;;;;;;;;;;;;;;35.23;27.16;91590.16;4976345;28;19937;-66
2022/07/19 09:49:20;;;;;;;;;;;;;;;35.94;27.92;91590.47;4976182;28;20384;-66
2022/07/19 09:51:46;;;;;;;;;;;;;;;36.72;25.81;91595.06;4976211;28;19968;-66
2022/07/19 09:54:13;;;;;;;;;;;;;;;35.42;25.86;91587.13;4976070;28;19937;-67
2022/07/19 09:56:40;;;;;;;;;;;;;;;33.96;26.53;91593.69;4976030;28;19914;-66
2022/07/19 09:59:06;;;;;;;;;;;;;;;33.48;27.94;91586.34;4975972;28;20463;-66
2022/07/19 10:01:32;;;;;;;;;;;;;;;32.98;28.84;91588.38;4974721;28;20005;-66
2022/07/19 10:04:02;;;;;;;;;;;;;;;33.70;28.94;91589.28;4974562;28;20404;-66
2022/07/19 10:06:28;;;;;;;;;;;;;;;34.32;28.61;91581.56;4974418;28;19972;-66
2022/07/19 10:08:54;;;;;;;;;;;;;;;35.09;26.26;91583.13;4975573;28;19984;-66
2022/07/19 10:11:20;;;;;;;;;;;;;;;34.33;25.69;91583.91;4975446;28;19922;-66
2022/07/19 10:13:48;;;;;;;;;;;;;;;33.51;27.55;91585.47;4974859;28;19949;-67
2022/07/19 10:16:15;;;;;;;;;;;;;;;33.50;28.37;91590.19;4975448;28;19924;-66
2022/07/19 10:18:50;;;;;;;;;;;;;;;33.85;27.69;91582.16;4975843;28;19914;-66
2022/07/19 10:21:15;;;;;;;;;;;;;;;33.28;27.60;91594.69;4975667;28;19914;-66
2022/07/19 10:23:49;;;;;;;;;;;;;;;33.74;26.42;91584.41;4975537;28;19918;-66
2022/07/19 10:26:33;;;;;;;;;;;;;;;33.19;25.80;91586.28;4975572;28;19914;-66
2022/07/19 10:29:12;;;;;;;;;;;;;;;32.75;28.41;91581.03;4975604;28;19924;-66
2022/07/19 10:31:37;;;;;;;;;;;;;;;34.06;28.17;91572.47;4975503;28;19949;-66
2022/07/19 10:34:04;;;;;;;;;;;;;;;34.96;28.29;91574.06;4975576;28;19964;-66
2022/07/19 10:36:33;;;;;;;;;;;;;;;36.06;25.92;91569.47;4975259;28;19945;-66
2022/07/19 10:39:16;;;;;;;;;;;;;;;36.33;23.97;91577.19;4975598;28;19992;-66
2022/07/19 10:42:02;;;;;;;;;;;;;;;35.20;25.33;91569.72;4975362;28;19918;-66
2022/07/19 10:44:28;;;;;;;;;;;;;;;33.35;25.74;91570.50;4975123;28;19921;-66
2022/07/19 10:46:54;;;;;;;;;;;;;;;33.73;25.24;91560.78;4975486;28;19945;-66
2022/07/19 10:49:38;;;;;;;;;;;;;;;34.89;25.98;91563.25;4975200;28;20332;-66
2022/07/19 10:52:26;;;;;;;;;;;;;;;35.32;26.05;91562.56;4975177;28;19921;-66
2022/07/19 10:55:10;;;;;;;;;;;;;;;36.89;26.03;91563.09;4967016;28;19918;-66
2022/07/19 10:57:37;;;;;;;;;;;;;;;37.28;26.67;91569.06;4974899;28;19921;-66
2022/07/19 11:00:15;;;;;;;;;;;;;;;37.21;26.11;91569.31;4974999;28;19957;-66
2022/07/19 11:02:40;;;;;;;;;;;;;;;38.19;24.72;91560.75;4974788;28;20343;-66
2022/07/19 11:05:05;;;;;;;;;;;;;;;38.04;25.19;91554.25;4974226;28;19921;-67
2022/07/19 11:07:31;;;;;;;;;;;;;;;38.48;25.55;91553.84;4974718;28;19917;-66
2022/07/19 11:09:57;;;;;;;;;;;;;;;38.52;24.71;91546.91;4974656;28;20017;-66
2022/07/19 11:12:24;;;;;;;;;;;;;;;37.98;26.33;91556.13;4974729;28;19918;-67
2022/07/19 11:14:50;;;;;;;;;;;;;;;37.20;25.98;91551.91;4974584;28;19914;-66
2022/07/19 11:17:15;;;;;;;;;;;;;;;35.20;27.40;91560.63;4974701;28;19921;-66
2022/07/19 11:19:57;;;;;;;;;;;;;;;34.92;28.74;91552.06;4974452;28;20530;-66
2022/07/19 11:22:22;;;;;;;;;;;;;;;35.87;26.65;91552.75;4974644;28;19969;-67
2022/07/19 11:24:47;;;;;;;;;;;;;;;35.85;26.33;91554.44;4974340;28;19918;-66
2022/07/19 11:27:13;;;;;;;;;;;;;;;34.50;27.71;91551.44;4974567;28;20351;-67
2022/07/19 11:29:58;;;;;;;;;;;;;;;33.65;29.45;91546.44;4974476;28;19914;-67
2022/07/19 11:32:24;;;;;;;;;;;;;;;32.15;30.49;91535.59;4974239;28;19969;-66
2022/07/19 11:34:59;;;;;;;;;;;;;;;33.14;30.45;91542.66;4974147;28;19914;-66
2022/07/19 11:37:26;;;;;;;;;;;;;;;31.79;32.35;91541.91;4974113;28;19914;-65
2022/07/19 11:39:51;;;;;;;;;;;;;;;33.73;29.04;91528.44;4974209;28;19925;-65
2022/07/19 11:42:27;;;;;;;;;;;;;;;33.99;30.15;91523.00;4974098;28;19914;-65
2022/07/19 11:44:54;;;;;;;;;;;;;;;33.70;31.05;91525.78;4973370;28;19914;-65
2022/07/19 11:47:20;;;;;;;;;;;;;;;34.66;29.47;91531.97;4951438;28;20358;-66
2022/07/19 11:49:46;;;;;;;;;;;;;;;34.68;28.82;91535.03;4954570;29;20372;-66
2022/07/19 11:52:11;;;;;;;;;;;;;;;34.29;28.14;91521.69;4954593;29;19918;-66
2022/07/19 11:54:38;;;;;;;;;;;;;;;34.17;29.68;91524.00;4954432;29;19926;-66
2022/07/19 11:57:03;;;;;;;;;;;;;;;33.82;30.10;91525.06;4953946;29;20017;-66
2022/07/19 11:59:29;;;;;;;;;;;;;;;35.17;29.05;91523.56;4954273;29;20041;-65
2022/07/19 12:01:57;;;;;;;;;;;;;;;34.95;28.74;91523.53;4954280;29;19914;-66
2022/07/19 12:04:22;;;;;;;;;;;;;;;34.63;28.95;91534.84;4957889;28;19918;-67
2022/07/19 12:06:49;;;;;;;;;;;;;;;34.19;28.77;91527.09;4973042;28;19945;-66
2022/07/19 12:09:16;;;;;;;;;;;;;;;34.24;29.87;91525.75;4973497;28;20315;-66
2022/07/19 12:11:46;;;;;;;;;;;;;;;34.83;30.25;91527.81;4973190;28;20001;-66
2022/07/19 12:14:32;;;;;;;;;;;;;;;34.40;30.09;91525.69;4973467;28;19918;-65
2022/07/19 12:17:11;;;;;;;;;;;;;;;35.34;28.54;91519.38;4973298;28;19918;-66
2022/07/19 12:19:41;;;;;;;;;;;;;;;35.50;28.30;91517.69;4973489;28;19918;-66
2022/07/19 12:22:06;;;;;;;;;;;;;;;36.72;27.71;91520.19;4973417;28;19918;-66
2022/07/19 12:24:32;;;;;;;;;;;;;;;36.10;28.44;91520.25;4973270;28;19914;-65
2022/07/19 12:26:57;;;;;;;;;;;;;;;35.57;27.27;91517.44;4972966;28;19936;-64
2022/07/19 12:29:24;;;;;;;;;;;;;;;33.33;30.23;91523.28;4973463;28;20360;-66
2022/07/19 12:31:52;;;;;;;;;;;;;;;33.16;30.50;91505.19;4973311;28;19920;-66
2022/07/19 12:34:18;;;;;;;;;;;;;;;32.55;30.46;91505.19;4972982;28;19914;-66
2022/07/19 12:36:43;;;;;;;;;;;;;;;32.44;32.25;91514.47;4973026;28;20307;-65
2022/07/19 12:39:41;;;;;;;;;;;;;;;33.57;30.45;91509.19;4973350;28;20351;-65
2022/07/19 12:42:06;;;;;;;;;;;;;;;33.33;30.17;91501.22;4940065;28;19918;-67